sensor_id;sensor_type;location;lat;lon;timestamp;P1;durP1;ratioP1;P2;durP2;ratioP2
29302;SDS011;60019;45.556;12.004;2023-07-13T04:43:16;8.03;;;3.57;;
29302;SDS011;60019;45.556;12.004;2023-07-13T04:49:18;6.60;;;2.95;;
29302;SDS011;60019;45.556;12.004;2023-07-13T04:55:20;5.10;;;2.35;;
29302;SDS011;60019;45.556;12.004;2023-07-13T05:01:21;4.85;;;3.05;;
29302;SDS011;60019;45.556;12.004;2023-07-13T05:07:29;8.43;;;2.17;;
29302;SDS011;60019;45.556;12.004;2023-07-13T05:13:33;4.60;;;2.70;;
29302;SDS011;60019;45.556;12.004;2023-07-13T05:19:35;4.55;;;2.80;;
29302;SDS011;60019;45.556;12.004;2023-07-13T05:25:37;8.38;;;3.53;;
29302;SDS011;60019;45.556;12.004;2023-07-13T05:31:39;6.40;;;2.83;;
29302;SDS011;60019;45.556;12.004;2023-07-13T05:37:41;9.07;;;2.92;;
29302;SDS011;60019;45.556;12.004;2023-07-13T05:43:42;3.63;;;2.60;;
29302;SDS011;60019;45.556;12.004;2023-07-13T05:49:44;3.53;;;2.75;;
29302;SDS011;60019;45.556;12.004;2023-07-13T05:55:47;10.98;;;2.80;;
29302;SDS011;60019;45.556;12.004;2023-07-13T06:01:50;6.43;;;2.72;;
29302;SDS011;60019;45.556;12.004;2023-07-13T06:07:55;7.90;;;3.38;;
29302;SDS011;60019;45.556;12.004;2023-07-13T06:13:57;8.45;;;3.58;;
29302;SDS011;60019;45.556;12.004;2023-07-13T06:19:59;9.48;;;4.20;;
29302;SDS011;60019;45.556;12.004;2023-07-13T06:26:01;10.60;;;3.58;;
29302;SDS011;60019;45.556;12.004;2023-07-13T06:32:02;8.80;;;3.53;;
29302;SDS011;60019;45.556;12.004;2023-07-13T06:38:04;8.80;;;3.75;;
29302;SDS011;60019;45.556;12.004;2023-07-13T06:44:06;4.38;;;2.72;;
29302;SDS011;60019;45.556;12.004;2023-07-13T06:50:08;6.90;;;2.70;;
29302;SDS011;60019;45.556;12.004;2023-07-13T06:56:10;8.60;;;2.70;;
29302;SDS011;60019;45.556;12.004;2023-07-13T07:02:12;8.68;;;2.08;;
29302;SDS011;60019;45.556;12.004;2023-07-13T07:08:14;6.45;;;2.60;;
29302;SDS011;60019;45.556;12.004;2023-07-13T07:14:15;5.70;;;2.38;;
29302;SDS011;60019;45.556;12.004;2023-07-13T07:20:18;3.35;;;2.20;;
29302;SDS011;60019;45.556;12.004;2023-07-13T07:26:21;4.03;;;1.90;;
29302;SDS011;60019;45.556;12.004;2023-07-13T07:32:22;2.13;;;1.48;;
29302;SDS011;60019;45.556;12.004;2023-07-13T07:38:24;4.78;;;1.95;;
29302;SDS011;60019;45.556;12.004;2023-07-13T07:44:26;3.28;;;2.03;;
29302;SDS011;60019;45.556;12.004;2023-07-13T07:50:29;4.25;;;2.28;;
29302;SDS011;60019;45.556;12.004;2023-07-13T07:56:31;3.75;;;1.80;;
29302;SDS011;60019;45.556;12.004;2023-07-13T08:02:32;3.70;;;2.00;;
29302;SDS011;60019;45.556;12.004;2023-07-13T08:08:34;2.75;;;1.73;;
29302;SDS011;60019;45.556;12.004;2023-07-13T08:14:36;1.98;;;1.75;;
29302;SDS011;60019;45.556;12.004;2023-07-13T08:20:39;3.70;;;1.73;;
29302;SDS011;60019;45.556;12.004;2023-07-13T08:26:40;5.25;;;1.90;;
29302;SDS011;60019;45.556;12.004;2023-07-13T08:32:42;2.53;;;1.70;;
29302;SDS011;60019;45.556;12.004;2023-07-13T08:38:44;6.43;;;2.33;;
29302;SDS011;60019;45.556;12.004;2023-07-13T08:56:49;4.88;;;1.83;;
29302;SDS011;60019;45.556;12.004;2023-07-13T09:02:57;4.07;;;2.03;;
29302;SDS011;60019;45.556;12.004;2023-07-13T09:09:00;2.25;;;1.70;;
29302;SDS011;60019;45.556;12.004;2023-07-13T09:15:03;3.28;;;1.80;;
29302;SDS011;60019;45.556;12.004;2023-07-13T09:21:25;2.95;;;2.00;;
29302;SDS011;60019;45.556;12.004;2023-07-13T09:27:33;5.03;;;1.67;;
29302;SDS011;60019;45.556;12.004;2023-07-13T09:33:36;2.60;;;1.83;;
29302;SDS011;60019;45.556;12.004;2023-07-13T09:39:39;3.25;;;1.70;;
29302;SDS011;60019;45.556;12.004;2023-07-13T09:45:42;4.93;;;1.85;;
29302;SDS011;60019;45.556;12.004;2023-07-13T09:51:46;3.70;;;2.10;;
29302;SDS011;60019;45.556;12.004;2023-07-13T09:57:48;4.18;;;2.30;;
29302;SDS011;60019;45.556;12.004;2023-07-13T10:03:53;2.70;;;1.42;;
29302;SDS011;60019;45.556;12.004;2023-07-13T10:09:55;3.63;;;1.70;;
29302;SDS011;60019;45.556;12.004;2023-07-13T10:15:57;2.60;;;1.85;;
29302;SDS011;60019;45.556;12.004;2023-07-13T10:22:01;4.47;;;2.30;;
29302;SDS011;60019;45.556;12.004;2023-07-13T10:28:06;3.65;;;2.42;;
29302;SDS011;60019;45.556;12.004;2023-07-13T10:34:11;4.05;;;1.98;;
29302;SDS011;60019;45.556;12.004;2023-07-13T10:40:14;4.78;;;2.28;;
29302;SDS011;60019;45.556;12.004;2023-07-13T10:46:19;3.55;;;2.33;;
29302;SDS011;60019;45.556;12.004;2023-07-13T10:58:39;1.98;;;1.75;;
29302;SDS011;60019;45.556;12.004;2023-07-13T11:04:42;8.32;;;2.70;;
29302;SDS011;60019;45.556;12.004;2023-07-13T11:10:55;4.38;;;2.40;;
29302;SDS011;60019;45.556;12.004;2023-07-13T11:16:57;3.38;;;2.17;;
29302;SDS011;60019;45.556;12.004;2023-07-13T11:35:23;14.82;;;5.68;;
29302;SDS011;60019;45.556;12.004;2023-07-13T11:41:26;4.22;;;2.40;;
29302;SDS011;60019;45.556;12.004;2023-07-13T11:47:29;6.13;;;2.78;;
29302;SDS011;60019;45.556;12.004;2023-07-13T11:53:38;4.22;;;3.20;;
29302;SDS011;60019;45.556;12.004;2023-07-13T11:59:40;7.05;;;3.28;;
29302;SDS011;60019;45.556;12.004;2023-07-13T12:05:58;6.38;;;3.08;;
29302;SDS011;60019;45.556;12.004;2023-07-13T12:12:02;7.18;;;3.75;;
29302;SDS011;60019;45.556;12.004;2023-07-13T12:18:11;7.07;;;3.60;;
29302;SDS011;60019;45.556;12.004;2023-07-13T12:24:14;5.35;;;3.55;;
29302;SDS011;60019;45.556;12.004;2023-07-13T12:30:30;8.73;;;3.80;;
29302;SDS011;60019;45.556;12.004;2023-07-13T12:36:35;9.10;;;3.70;;
29302;SDS011;60019;45.556;12.004;2023-07-13T12:42:37;10.50;;;6.20;;
29302;SDS011;60019;45.556;12.004;2023-07-13T12:48:40;14.75;;;5.78;;
29302;SDS011;60019;45.556;12.004;2023-07-13T12:54:52;10.82;;;5.15;;
29302;SDS011;60019;45.556;12.004;2023-07-13T13:00:55;8.48;;;5.18;;
29302;SDS011;60019;45.556;12.004;2023-07-13T13:07:02;7.60;;;4.40;;
29302;SDS011;60019;45.556;12.004;2023-07-13T13:13:03;6.60;;;5.00;;
29302;SDS011;60019;45.556;12.004;2023-07-13T13:19:13;7.00;;;3.78;;
29302;SDS011;60019;45.556;12.004;2023-07-13T13:25:16;6.97;;;4.38;;
29302;SDS011;60019;45.556;12.004;2023-07-13T13:31:18;7.82;;;4.82;;
29302;SDS011;60019;45.556;12.004;2023-07-13T13:37:20;6.60;;;4.10;;
29302;SDS011;60019;45.556;12.004;2023-07-13T13:43:24;5.35;;;3.80;;
29302;SDS011;60019;45.556;12.004;2023-07-13T13:49:27;10.23;;;3.80;;
29302;SDS011;60019;45.556;12.004;2023-07-13T13:55:29;7.05;;;3.65;;
29302;SDS011;60019;45.556;12.004;2023-07-13T14:01:31;6.88;;;3.58;;
29302;SDS011;60019;45.556;12.004;2023-07-13T14:07:33;5.82;;;4.03;;
29302;SDS011;60019;45.556;12.004;2023-07-13T14:13:36;7.40;;;3.70;;
29302;SDS011;60019;45.556;12.004;2023-07-13T14:19:40;8.65;;;3.80;;
29302;SDS011;60019;45.556;12.004;2023-07-13T14:25:42;6.72;;;3.58;;
29302;SDS011;60019;45.556;12.004;2023-07-13T14:31:44;4.72;;;3.50;;
29302;SDS011;60019;45.556;12.004;2023-07-13T14:37:47;6.20;;;3.45;;
29302;SDS011;60019;45.556;12.004;2023-07-13T14:43:49;8.43;;;4.32;;
29302;SDS011;60019;45.556;12.004;2023-07-13T14:49:50;7.40;;;3.70;;
29302;SDS011;60019;45.556;12.004;2023-07-13T14:55:52;4.65;;;3.53;;
29302;SDS011;60019;45.556;12.004;2023-07-13T15:01:54;6.32;;;3.58;;
29302;SDS011;60019;45.556;12.004;2023-07-13T15:07:59;7.88;;;3.60;;
29302;SDS011;60019;45.556;12.004;2023-07-13T15:14:01;4.70;;;3.20;;
29302;SDS011;60019;45.556;12.004;2023-07-13T15:20:04;6.25;;;4.03;;
29302;SDS011;60019;45.556;12.004;2023-07-13T15:26:10;5.63;;;3.70;;
29302;SDS011;60019;45.556;12.004;2023-07-13T15:32:14;5.30;;;3.20;;
29302;SDS011;60019;45.556;12.004;2023-07-13T15:38:17;3.67;;;2.95;;
29302;SDS011;60019;45.556;12.004;2023-07-13T15:44:23;4.20;;;2.65;;
29302;SDS011;60019;45.556;12.004;2023-07-13T15:50:25;5.30;;;3.20;;
29302;SDS011;60019;45.556;12.004;2023-07-13T15:56:33;7.25;;;3.33;;
29302;SDS011;60019;45.556;12.004;2023-07-13T16:02:35;9.35;;;3.38;;
29302;SDS011;60019;45.556;12.004;2023-07-13T16:08:37;4.93;;;2.90;;
29302;SDS011;60019;45.556;12.004;2023-07-13T16:14:41;7.43;;;2.72;;
29302;SDS011;60019;45.556;12.004;2023-07-13T16:20:43;5.30;;;2.85;;
29302;SDS011;60019;45.556;12.004;2023-07-13T16:26:45;4.43;;;2.85;;
29302;SDS011;60019;45.556;12.004;2023-07-13T16:32:48;7.13;;;3.15;;
29302;SDS011;60019;45.556;12.004;2023-07-13T16:38:53;6.45;;;3.42;;
29302;SDS011;60019;45.556;12.004;2023-07-13T16:44:54;4.65;;;2.80;;
29302;SDS011;60019;45.556;12.004;2023-07-13T16:50:57;7.57;;;2.40;;
29302;SDS011;60019;45.556;12.004;2023-07-13T16:57:00;2.90;;;2.15;;
29302;SDS011;60019;45.556;12.004;2023-07-13T17:03:03;3.42;;;2.35;;
29302;SDS011;60019;45.556;12.004;2023-07-13T17:09:11;3.40;;;2.50;;
29302;SDS011;60019;45.556;12.004;2023-07-13T17:15:23;4.93;;;2.38;;
29302;SDS011;60019;45.556;12.004;2023-07-13T17:21:25;3.65;;;2.00;;
29302;SDS011;60019;45.556;12.004;2023-07-13T17:27:27;5.80;;;2.63;;
29302;SDS011;60019;45.556;12.004;2023-07-13T17:33:33;5.60;;;2.22;;
29302;SDS011;60019;45.556;12.004;2023-07-13T17:39:37;3.87;;;2.27;;
29302;SDS011;60019;45.556;12.004;2023-07-13T17:45:39;5.05;;;2.92;;
29302;SDS011;60019;45.556;12.004;2023-07-13T17:51:41;7.13;;;4.32;;
29302;SDS011;60019;45.556;12.004;2023-07-13T17:57:43;12.98;;;7.05;;
29302;SDS011;60019;45.556;12.004;2023-07-13T18:03:49;9.52;;;6.60;;
29302;SDS011;60019;45.556;12.004;2023-07-13T18:09:52;7.50;;;2.90;;
29302;SDS011;60019;45.556;12.004;2023-07-13T18:15:54;15.05;;;10.40;;
29302;SDS011;60019;45.556;12.004;2023-07-13T18:21:59;13.43;;;7.97;;
29302;SDS011;60019;45.556;12.004;2023-07-13T18:28:03;15.20;;;9.68;;
29302;SDS011;60019;45.556;12.004;2023-07-13T18:34:05;13.57;;;7.97;;
29302;SDS011;60019;45.556;12.004;2023-07-13T18:40:12;24.58;;;15.52;;
29302;SDS011;60019;45.556;12.004;2023-07-13T18:52:23;19.07;;;11.87;;
29302;SDS011;60019;45.556;12.004;2023-07-13T18:58:25;11.57;;;6.85;;
29302;SDS011;60019;45.556;12.004;2023-07-13T19:04:28;12.00;;;6.82;;
29302;SDS011;60019;45.556;12.004;2023-07-13T19:10:30;19.10;;;13.20;;
29302;SDS011;60019;45.556;12.004;2023-07-13T19:16:33;10.90;;;6.18;;
29302;SDS011;60019;45.556;12.004;2023-07-13T19:22:35;9.38;;;4.32;;
29302;SDS011;60019;45.556;12.004;2023-07-13T19:28:40;8.60;;;4.05;;
29302;SDS011;60019;45.556;12.004;2023-07-13T19:34:42;8.50;;;3.85;;
29302;SDS011;60019;45.556;12.004;2023-07-13T19:40:43;8.13;;;5.88;;
29302;SDS011;60019;45.556;12.004;2023-07-13T19:46:45;18.10;;;12.13;;
29302;SDS011;60019;45.556;12.004;2023-07-13T19:52:48;6.00;;;3.67;;
29302;SDS011;60019;45.556;12.004;2023-07-13T19:58:50;8.10;;;4.40;;
29302;SDS011;60019;45.556;12.004;2023-07-13T20:04:53;13.30;;;5.75;;
29302;SDS011;60019;45.556;12.004;2023-07-13T20:10:55;12.32;;;5.28;;
29302;SDS011;60019;45.556;12.004;2023-07-13T20:17:01;6.82;;;4.35;;
29302;SDS011;60019;45.556;12.004;2023-07-13T20:23:14;11.82;;;5.40;;
29302;SDS011;60019;45.556;12.004;2023-07-13T20:29:16;16.38;;;7.80;;
29302;SDS011;60019;45.556;12.004;2023-07-13T20:41:24;9.95;;;7.25;;
29302;SDS011;60019;45.556;12.004;2023-07-13T20:47:25;19.65;;;11.15;;
29302;SDS011;60019;45.556;12.004;2023-07-13T20:53:27;14.68;;;7.80;;
29302;SDS011;60019;45.556;12.004;2023-07-13T20:59:30;11.18;;;6.32;;
29302;SDS011;60019;45.556;12.004;2023-07-13T21:05:35;12.82;;;6.45;;
29302;SDS011;60019;45.556;12.004;2023-07-13T21:11:38;10.77;;;5.40;;
29302;SDS011;60019;45.556;12.004;2023-07-13T21:17:40;6.82;;;4.35;;
29302;SDS011;60019;45.556;12.004;2023-07-13T21:23:42;3.92;;;3.53;;
29302;SDS011;60019;45.556;12.004;2023-07-13T21:29:44;9.00;;;5.75;;
29302;SDS011;60019;45.556;12.004;2023-07-13T21:35:46;10.73;;;4.80;;
29302;SDS011;60019;45.556;12.004;2023-07-13T21:41:49;4.70;;;3.40;;
29302;SDS011;60019;45.556;12.004;2023-07-13T21:47:51;6.93;;;4.95;;
29302;SDS011;60019;45.556;12.004;2023-07-13T21:53:54;7.45;;;4.53;;
29302;SDS011;60019;45.556;12.004;2023-07-13T21:59:56;9.18;;;5.03;;
29302;SDS011;60019;45.556;12.004;2023-07-13T22:05:57;3.70;;;3.08;;
29302;SDS011;60019;45.556;12.004;2023-07-13T22:11:59;8.75;;;4.60;;
29302;SDS011;60019;45.556;12.004;2023-07-13T22:18:08;6.28;;;3.72;;
29302;SDS011;60019;45.556;12.004;2023-07-13T22:24:12;7.80;;;4.57;;
29302;SDS011;60019;45.556;12.004;2023-07-13T22:30:15;6.22;;;3.80;;
29302;SDS011;60019;45.556;12.004;2023-07-13T22:36:18;7.40;;;4.50;;
29302;SDS011;60019;45.556;12.004;2023-07-13T22:42:19;7.57;;;4.30;;
29302;SDS011;60019;45.556;12.004;2023-07-13T22:48:22;8.90;;;4.00;;
29302;SDS011;60019;45.556;12.004;2023-07-13T22:54:24;6.70;;;4.32;;
29302;SDS011;60019;45.556;12.004;2023-07-13T23:00:26;9.43;;;4.88;;
29302;SDS011;60019;45.556;12.004;2023-07-13T23:06:30;11.05;;;6.10;;
29302;SDS011;60019;45.556;12.004;2023-07-13T23:12:34;12.60;;;7.13;;
29302;SDS011;60019;45.556;12.004;2023-07-13T23:18:35;9.45;;;4.78;;
29302;SDS011;60019;45.556;12.004;2023-07-13T23:24:37;6.47;;;4.28;;
29302;SDS011;60019;45.556;12.004;2023-07-13T23:30:42;5.47;;;3.85;;
29302;SDS011;60019;45.556;12.004;2023-07-13T23:36:45;8.23;;;4.82;;
29302;SDS011;60019;45.556;12.004;2023-07-13T23:42:48;7.75;;;4.63;;
29302;SDS011;60019;45.556;12.004;2023-07-13T23:48:50;4.60;;;3.30;;
29302;SDS011;60019;45.556;12.004;2023-07-13T23:54:54;6.40;;;3.78;;
